sensor_id;sensor_type;location;lat;lon;timestamp;pressure;altitude;pressure_sealevel;temperature;humidity
68077;BME280;54866;53.458;14.540;2023-01-30T00:02:11;100093.30;;;0.90;100.00
68077;BME280;54866;53.458;14.540;2023-01-30T00:04:40;100090.89;;;0.93;100.00
68077;BME280;54866;53.458;14.540;2023-01-30T00:07:10;100090.02;;;0.93;100.00
68077;BME280;54866;53.458;14.540;2023-01-30T00:09:39;100077.59;;;0.95;100.00
68077;BME280;54866;53.458;14.540;2023-01-30T00:12:08;100068.88;;;0.96;100.00
68077;BME280;54866;53.458;14.540;2023-01-30T00:14:38;100056.18;;;0.97;100.00
68077;BME280;54866;53.458;14.540;2023-01-30T00:17:07;100046.70;;;0.99;100.00
68077;BME280;54866;53.458;14.540;2023-01-30T00:19:36;100039.75;;;1.00;100.00
68077;BME280;54866;53.458;14.540;2023-01-30T00:22:06;100027.09;;;1.03;100.00
68077;BME280;54866;53.458;14.540;2023-01-30T00:24:35;100008.96;;;1.01;100.00
68077;BME280;54866;53.458;14.540;2023-01-30T00:27:05;99989.85;;;1.02;100.00
68077;BME280;54866;53.458;14.540;2023-01-30T00:29:34;99974.25;;;1.02;100.00
68077;BME280;54866;53.458;14.540;2023-01-30T00:32:03;99952.64;;;1.04;100.00
68077;BME280;54866;53.458;14.540;2023-01-30T00:34:33;99931.63;;;1.04;100.00
68077;BME280;54866;53.458;14.540;2023-01-30T00:37:02;99924.14;;;1.05;99.98
68077;BME280;54866;53.458;14.540;2023-01-30T00:39:32;99938.20;;;1.08;99.91
68077;BME280;54866;53.458;14.540;2023-01-30T00:42:01;99949.57;;;1.09;99.82
68077;BME280;54866;53.458;14.540;2023-01-30T00:44:48;99941.61;;;1.09;99.97
68077;BME280;54866;53.458;14.540;2023-01-30T00:47:35;99914.58;;;1.09;99.88
68077;BME280;54866;53.458;14.540;2023-01-30T00:50:05;99924.07;;;1.09;99.88
68077;BME280;54866;53.458;14.540;2023-01-30T00:52:34;99911.52;;;1.11;99.71
68077;BME280;54866;53.458;14.540;2023-01-30T00:55:04;99880.46;;;1.11;99.65
68077;BME280;54866;53.458;14.540;2023-01-30T00:57:34;99890.40;;;1.10;99.71
68077;BME280;54866;53.458;14.540;2023-01-30T01:00:04;99886.52;;;1.14;99.71
68077;BME280;54866;53.458;14.540;2023-01-30T01:02:34;99875.83;;;1.13;99.52
68077;BME280;54866;53.458;14.540;2023-01-30T01:05:05;99874.00;;;1.15;99.66
68077;BME280;54866;53.458;14.540;2023-01-30T01:07:34;99872.48;;;1.14;99.76
68077;BME280;54866;53.458;14.540;2023-01-30T01:10:04;99869.27;;;1.12;99.93
68077;BME280;54866;53.458;14.540;2023-01-30T01:12:34;99860.41;;;1.12;99.93
68077;BME280;54866;53.458;14.540;2023-01-30T01:15:03;99843.73;;;1.10;100.00
68077;BME280;54866;53.458;14.540;2023-01-30T01:17:33;99836.63;;;1.10;100.00
68077;BME280;54866;53.458;14.540;2023-01-30T01:20:03;99842.59;;;1.09;100.00
68077;BME280;54866;53.458;14.540;2023-01-30T01:22:32;99834.41;;;1.06;100.00
68077;BME280;54866;53.458;14.540;2023-01-30T01:25:02;99823.79;;;1.07;100.00
68077;BME280;54866;53.458;14.540;2023-01-30T01:27:31;99821.72;;;1.06;100.00
68077;BME280;54866;53.458;14.540;2023-01-30T01:30:01;99813.74;;;1.03;100.00
68077;BME280;54866;53.458;14.540;2023-01-30T01:32:31;99811.11;;;1.03;100.00
68077;BME280;54866;53.458;14.540;2023-01-30T01:35:00;99793.33;;;1.02;100.00
68077;BME280;54866;53.458;14.540;2023-01-30T01:37:30;99809.19;;;1.03;100.00
68077;BME280;54866;53.458;14.540;2023-01-30T01:39:59;99809.36;;;1.03;100.00
68077;BME280;54866;53.458;14.540;2023-01-30T01:42:46;99804.83;;;1.04;100.00
68077;BME280;54866;53.458;14.540;2023-01-30T01:45:18;99811.27;;;1.04;100.00
68077;BME280;54866;53.458;14.540;2023-01-30T01:47:56;99798.24;;;1.04;100.00
68077;BME280;54866;53.458;14.540;2023-01-30T01:50:30;99801.00;;;1.05;100.00
68077;BME280;54866;53.458;14.540;2023-01-30T01:52:58;99798.10;;;1.04;100.00
68077;BME280;54866;53.458;14.540;2023-01-30T01:55:30;99792.15;;;1.05;100.00
68077;BME280;54866;53.458;14.540;2023-01-30T01:58:03;99793.90;;;1.04;100.00
68077;BME280;54866;53.458;14.540;2023-01-30T02:00:36;99789.77;;;1.07;100.00
68077;BME280;54866;53.458;14.540;2023-01-30T02:03:08;99780.70;;;1.08;100.00
68077;BME280;54866;53.458;14.540;2023-01-30T02:05:44;99763.02;;;1.08;100.00
68077;BME280;54866;53.458;14.540;2023-01-30T02:08:17;99758.68;;;1.08;100.00
68077;BME280;54866;53.458;14.540;2023-01-30T02:10:51;99750.67;;;1.05;100.00
68077;BME280;54866;53.458;14.540;2023-01-30T02:13:23;99749.78;;;1.02;100.00
68077;BME280;54866;53.458;14.540;2023-01-30T02:15:53;99736.90;;;1.06;100.00
68077;BME280;54866;53.458;14.540;2023-01-30T02:18:23;99730.02;;;1.08;100.00
68077;BME280;54866;53.458;14.540;2023-01-30T02:21:09;99732.56;;;1.09;100.00
68077;BME280;54866;53.458;14.540;2023-01-30T02:24:04;99716.46;;;1.06;100.00
68077;BME280;54866;53.458;14.540;2023-01-30T02:27:08;99708.63;;;1.09;100.00
68077;BME280;54866;53.458;14.540;2023-01-30T02:30:13;99705.12;;;1.10;100.00
68077;BME280;54866;53.458;14.540;2023-01-30T02:32:54;99699.26;;;1.09;100.00
68077;BME280;54866;53.458;14.540;2023-01-30T02:35:32;99695.90;;;1.10;100.00
68077;BME280;54866;53.458;14.540;2023-01-30T02:38:14;99679.34;;;1.09;100.00
68077;BME280;54866;53.458;14.540;2023-01-30T02:40:51;99674.79;;;1.12;100.00
68077;BME280;54866;53.458;14.540;2023-01-30T02:43:30;99676.35;;;1.13;100.00
68077;BME280;54866;53.458;14.540;2023-01-30T02:46:07;99662.84;;;1.12;100.00
68077;BME280;54866;53.458;14.540;2023-01-30T02:48:42;99652.91;;;1.13;100.00
68077;BME280;54866;53.458;14.540;2023-01-30T02:51:18;99653.16;;;1.12;100.00
68077;BME280;54866;53.458;14.540;2023-01-30T02:53:48;99656.17;;;1.13;100.00
68077;BME280;54866;53.458;14.540;2023-01-30T02:56:18;99649.73;;;1.14;100.00
68077;BME280;54866;53.458;14.540;2023-01-30T02:58:51;99653.20;;;1.17;100.00
68077;BME280;54866;53.458;14.540;2023-01-30T03:01:34;99643.96;;;1.15;100.00
68077;BME280;54866;53.458;14.540;2023-01-30T03:04:17;99632.62;;;1.13;100.00
68077;BME280;54866;53.458;14.540;2023-01-30T03:07:14;99649.20;;;1.14;100.00
68077;BME280;54866;53.458;14.540;2023-01-30T03:09:50;99646.75;;;1.15;100.00
68077;BME280;54866;53.458;14.540;2023-01-30T03:12:30;99641.73;;;1.11;100.00
68077;BME280;54866;53.458;14.540;2023-01-30T03:15:07;99635.23;;;1.10;100.00
68077;BME280;54866;53.458;14.540;2023-01-30T03:17:41;99628.14;;;1.12;100.00
68077;BME280;54866;53.458;14.540;2023-01-30T03:20:13;99620.89;;;1.14;100.00
68077;BME280;54866;53.458;14.540;2023-01-30T03:22:43;99614.13;;;1.14;100.00
68077;BME280;54866;53.458;14.540;2023-01-30T03:25:14;99607.11;;;1.16;100.00
68077;BME280;54866;53.458;14.540;2023-01-30T03:27:45;99600.55;;;1.15;100.00
68077;BME280;54866;53.458;14.540;2023-01-30T03:30:17;99598.70;;;1.18;100.00
68077;BME280;54866;53.458;14.540;2023-01-30T03:32:46;99599.47;;;1.16;100.00
68077;BME280;54866;53.458;14.540;2023-01-30T03:35:16;99600.79;;;1.17;100.00
68077;BME280;54866;53.458;14.540;2023-01-30T03:37:45;99595.80;;;1.20;100.00
68077;BME280;54866;53.458;14.540;2023-01-30T03:40:16;99592.22;;;1.22;100.00
68077;BME280;54866;53.458;14.540;2023-01-30T03:42:46;99585.11;;;1.22;100.00
68077;BME280;54866;53.458;14.540;2023-01-30T03:45:15;99568.30;;;1.21;100.00
68077;BME280;54866;53.458;14.540;2023-01-30T03:47:45;99560.73;;;1.23;100.00
68077;BME280;54866;53.458;14.540;2023-01-30T03:50:14;99562.64;;;1.23;100.00
68077;BME280;54866;53.458;14.540;2023-01-30T03:52:44;99547.65;;;1.25;100.00
68077;BME280;54866;53.458;14.540;2023-01-30T03:55:13;99543.06;;;1.26;100.00
68077;BME280;54866;53.458;14.540;2023-01-30T03:57:42;99531.37;;;1.27;100.00
68077;BME280;54866;53.458;14.540;2023-01-30T04:00:13;99525.05;;;1.28;100.00
68077;BME280;54866;53.458;14.540;2023-01-30T04:02:43;99516.23;;;1.28;100.00
68077;BME280;54866;53.458;14.540;2023-01-30T04:05:12;99503.35;;;1.28;100.00
68077;BME280;54866;53.458;14.540;2023-01-30T04:07:42;99494.63;;;1.29;100.00
68077;BME280;54866;53.458;14.540;2023-01-30T04:10:12;99489.84;;;1.28;100.00
68077;BME280;54866;53.458;14.540;2023-01-30T04:12:43;99482.25;;;1.27;100.00
68077;BME280;54866;53.458;14.540;2023-01-30T04:15:12;99473.39;;;1.25;100.00
68077;BME280;54866;53.458;14.540;2023-01-30T04:17:43;99470.23;;;1.22;100.00
68077;BME280;54866;53.458;14.540;2023-01-30T04:20:12;99459.99;;;1.19;100.00
68077;BME280;54866;53.458;14.540;2023-01-30T04:22:42;99442.98;;;1.16;100.00
68077;BME280;54866;53.458;14.540;2023-01-30T04:25:11;99453.71;;;1.14;100.00
68077;BME280;54866;53.458;14.540;2023-01-30T04:27:40;99449.09;;;1.10;100.00
68077;BME280;54866;53.458;14.540;2023-01-30T04:30:11;99444.81;;;1.06;100.00
68077;BME280;54866;53.458;14.540;2023-01-30T04:32:41;99436.59;;;1.04;100.00
68077;BME280;54866;53.458;14.540;2023-01-30T04:35:11;99427.56;;;1.02;100.00
68077;BME280;54866;53.458;14.540;2023-01-30T04:37:40;99424.54;;;0.97;100.00
68077;BME280;54866;53.458;14.540;2023-01-30T04:40:12;99420.17;;;0.92;100.00
68077;BME280;54866;53.458;14.540;2023-01-30T04:42:41;99419.92;;;0.90;100.00
68077;BME280;54866;53.458;14.540;2023-01-30T04:45:11;99420.16;;;0.89;100.00
68077;BME280;54866;53.458;14.540;2023-01-30T04:47:40;99419.45;;;0.86;100.00
68077;BME280;54866;53.458;14.540;2023-01-30T04:50:11;99413.52;;;0.84;100.00
68077;BME280;54866;53.458;14.540;2023-01-30T04:52:40;99401.29;;;0.79;100.00
68077;BME280;54866;53.458;14.540;2023-01-30T04:55:10;99397.59;;;0.78;100.00
68077;BME280;54866;53.458;14.540;2023-01-30T04:57:39;99396.63;;;0.76;100.00
68077;BME280;54866;53.458;14.540;2023-01-30T05:00:12;99392.16;;;0.73;100.00
68077;BME280;54866;53.458;14.540;2023-01-30T05:02:41;99394.86;;;0.71;100.00
68077;BME280;54866;53.458;14.540;2023-01-30T05:05:10;99392.27;;;0.68;100.00
68077;BME280;54866;53.458;14.540;2023-01-30T05:07:40;99388.09;;;0.65;100.00
68077;BME280;54866;53.458;14.540;2023-01-30T05:10:11;99392.86;;;0.64;100.00
68077;BME280;54866;53.458;14.540;2023-01-30T05:12:40;99372.39;;;0.61;100.00
68077;BME280;54866;53.458;14.540;2023-01-30T05:15:11;99375.35;;;0.61;100.00
68077;BME280;54866;53.458;14.540;2023-01-30T05:17:41;99369.90;;;0.59;100.00
68077;BME280;54866;53.458;14.540;2023-01-30T05:20:13;99364.41;;;0.58;100.00
68077;BME280;54866;53.458;14.540;2023-01-30T05:22:42;99365.35;;;0.57;100.00
68077;BME280;54866;53.458;14.540;2023-01-30T05:25:11;99364.50;;;0.59;100.00
68077;BME280;54866;53.458;14.540;2023-01-30T05:27:41;99351.21;;;0.62;100.00
68077;BME280;54866;53.458;14.540;2023-01-30T05:30:11;99357.30;;;0.64;100.00
68077;BME280;54866;53.458;14.540;2023-01-30T05:32:41;99351.88;;;0.65;100.00
68077;BME280;54866;53.458;14.540;2023-01-30T05:35:10;99348.09;;;0.68;100.00
68077;BME280;54866;53.458;14.540;2023-01-30T05:37:39;99336.74;;;0.69;100.00
68077;BME280;54866;53.458;14.540;2023-01-30T05:40:11;99350.41;;;0.69;100.00
68077;BME280;54866;53.458;14.540;2023-01-30T05:42:41;99344.84;;;0.70;100.00
68077;BME280;54866;53.458;14.540;2023-01-30T05:45:11;99339.64;;;0.70;100.00
68077;BME280;54866;53.458;14.540;2023-01-30T05:47:40;99332.49;;;0.73;100.00
68077;BME280;54866;53.458;14.540;2023-01-30T05:50:11;99325.94;;;0.76;100.00
68077;BME280;54866;53.458;14.540;2023-01-30T05:52:41;99320.60;;;0.78;100.00
68077;BME280;54866;53.458;14.540;2023-01-30T05:55:11;99319.36;;;0.78;100.00
68077;BME280;54866;53.458;14.540;2023-01-30T05:57:40;99314.44;;;0.79;100.00
68077;BME280;54866;53.458;14.540;2023-01-30T06:00:12;99315.49;;;0.82;100.00
68077;BME280;54866;53.458;14.540;2023-01-30T06:02:41;99300.10;;;0.84;100.00
68077;BME280;54866;53.458;14.540;2023-01-30T06:05:11;99311.11;;;0.89;100.00
68077;BME280;54866;53.458;14.540;2023-01-30T06:07:40;99319.23;;;0.92;100.00
68077;BME280;54866;53.458;14.540;2023-01-30T06:10:11;99323.27;;;0.94;100.00
68077;BME280;54866;53.458;14.540;2023-01-30T06:12:40;99316.73;;;0.96;100.00
68077;BME280;54866;53.458;14.540;2023-01-30T06:15:11;99302.20;;;0.99;100.00
68077;BME280;54866;53.458;14.540;2023-01-30T06:17:43;99304.44;;;1.01;100.00
68077;BME280;54866;53.458;14.540;2023-01-30T06:20:15;99291.94;;;1.05;100.00
68077;BME280;54866;53.458;14.540;2023-01-30T06:22:44;99292.75;;;1.08;100.00
68077;BME280;54866;53.458;14.540;2023-01-30T06:25:13;99298.38;;;1.10;100.00
68077;BME280;54866;53.458;14.540;2023-01-30T06:27:43;99301.79;;;1.14;100.00
68077;BME280;54866;53.458;14.540;2023-01-30T06:30:14;99300.69;;;1.17;100.00
68077;BME280;54866;53.458;14.540;2023-01-30T06:32:43;99305.50;;;1.20;100.00
68077;BME280;54866;53.458;14.540;2023-01-30T06:35:13;99294.63;;;1.23;100.00
68077;BME280;54866;53.458;14.540;2023-01-30T06:37:44;99298.16;;;1.25;100.00
68077;BME280;54866;53.458;14.540;2023-01-30T06:40:14;99298.40;;;1.26;100.00
68077;BME280;54866;53.458;14.540;2023-01-30T06:42:47;99291.98;;;1.32;100.00
68077;BME280;54866;53.458;14.540;2023-01-30T06:45:18;99299.20;;;1.35;100.00
68077;BME280;54866;53.458;14.540;2023-01-30T06:47:49;99298.44;;;1.39;100.00
68077;BME280;54866;53.458;14.540;2023-01-30T06:50:20;99290.98;;;1.42;100.00
68077;BME280;54866;53.458;14.540;2023-01-30T06:52:50;99293.23;;;1.45;100.00
68077;BME280;54866;53.458;14.540;2023-01-30T06:55:22;99286.69;;;1.49;100.00
68077;BME280;54866;53.458;14.540;2023-01-30T06:58:01;99284.23;;;1.53;100.00
68077;BME280;54866;53.458;14.540;2023-01-30T07:00:32;99288.51;;;1.57;100.00
68077;BME280;54866;53.458;14.540;2023-01-30T07:03:01;99284.73;;;1.61;100.00
68077;BME280;54866;53.458;14.540;2023-01-30T07:05:31;99289.64;;;1.66;100.00
68077;BME280;54866;53.458;14.540;2023-01-30T07:08:00;99292.13;;;1.70;100.00
68077;BME280;54866;53.458;14.540;2023-01-30T07:10:30;99288.77;;;1.74;100.00
68077;BME280;54866;53.458;14.540;2023-01-30T07:12:59;99293.70;;;1.78;100.00
68077;BME280;54866;53.458;14.540;2023-01-30T07:15:29;99288.15;;;1.84;100.00
68077;BME280;54866;53.458;14.540;2023-01-30T07:17:59;99273.81;;;1.90;100.00
68077;BME280;54866;53.458;14.540;2023-01-30T07:20:28;99286.83;;;1.96;100.00
68077;BME280;54866;53.458;14.540;2023-01-30T07:22:58;99285.16;;;2.02;100.00
68077;BME280;54866;53.458;14.540;2023-01-30T07:25:29;99287.07;;;2.08;100.00
68077;BME280;54866;53.458;14.540;2023-01-30T07:28:00;99294.04;;;2.13;100.00
68077;BME280;54866;53.458;14.540;2023-01-30T07:30:34;99293.52;;;2.18;100.00
68077;BME280;54866;53.458;14.540;2023-01-30T07:33:05;99304.39;;;2.24;100.00
68077;BME280;54866;53.458;14.540;2023-01-30T07:35:36;99308.23;;;2.30;100.00
68077;BME280;54866;53.458;14.540;2023-01-30T07:38:05;99310.92;;;2.33;100.00
68077;BME280;54866;53.458;14.540;2023-01-30T07:40:35;99311.02;;;2.40;100.00
68077;BME280;54866;53.458;14.540;2023-01-30T07:43:05;99317.52;;;2.44;100.00
68077;BME280;54866;53.458;14.540;2023-01-30T07:45:39;99316.41;;;2.48;100.00
68077;BME280;54866;53.458;14.540;2023-01-30T07:48:09;99318.69;;;2.53;100.00
68077;BME280;54866;53.458;14.540;2023-01-30T07:50:39;99311.12;;;2.57;100.00
68077;BME280;54866;53.458;14.540;2023-01-30T07:53:11;99308.75;;;2.61;100.00
68077;BME280;54866;53.458;14.540;2023-01-30T07:55:41;99316.16;;;2.67;100.00
68077;BME280;54866;53.458;14.540;2023-01-30T07:58:13;99316.53;;;2.71;100.00
68077;BME280;54866;53.458;14.540;2023-01-30T08:00:43;99319.05;;;2.75;100.00
68077;BME280;54866;53.458;14.540;2023-01-30T08:03:14;99320.06;;;2.81;100.00
68077;BME280;54866;53.458;14.540;2023-01-30T08:05:45;99317.62;;;2.86;100.00
68077;BME280;54866;53.458;14.540;2023-01-30T08:08:15;99314.41;;;2.92;100.00
68077;BME280;54866;53.458;14.540;2023-01-30T08:10:44;99316.11;;;2.98;100.00
68077;BME280;54866;53.458;14.540;2023-01-30T08:13:16;99317.08;;;3.02;100.00
68077;BME280;54866;53.458;14.540;2023-01-30T08:15:46;99313.80;;;3.06;100.00
68077;BME280;54866;53.458;14.540;2023-01-30T08:18:15;99305.94;;;3.12;100.00
68077;BME280;54866;53.458;14.540;2023-01-30T08:20:44;99305.96;;;3.19;100.00
68077;BME280;54866;53.458;14.540;2023-01-30T08:23:13;99309.99;;;3.23;100.00
68077;BME280;54866;53.458;14.540;2023-01-30T08:25:43;99315.86;;;3.26;100.00
68077;BME280;54866;53.458;14.540;2023-01-30T08:28:12;99312.11;;;3.27;100.00
68077;BME280;54866;53.458;14.540;2023-01-30T08:30:42;99319.36;;;3.28;100.00
68077;BME280;54866;53.458;14.540;2023-01-30T08:33:11;99322.11;;;3.29;100.00
68077;BME280;54866;53.458;14.540;2023-01-30T08:35:41;99315.60;;;3.30;100.00
68077;BME280;54866;53.458;14.540;2023-01-30T08:38:11;99313.02;;;3.37;100.00
68077;BME280;54866;53.458;14.540;2023-01-30T08:40:40;99313.54;;;3.54;100.00
68077;BME280;54866;53.458;14.540;2023-01-30T08:43:10;99306.96;;;3.75;100.00
68077;BME280;54866;53.458;14.540;2023-01-30T08:45:39;99294.02;;;3.88;100.00
68077;BME280;54866;53.458;14.540;2023-01-30T08:48:09;99289.57;;;3.94;100.00
68077;BME280;54866;53.458;14.540;2023-01-30T08:50:38;99291.34;;;4.01;100.00
68077;BME280;54866;53.458;14.540;2023-01-30T08:53:08;99283.49;;;4.04;100.00
68077;BME280;54866;53.458;14.540;2023-01-30T08:55:38;99281.09;;;4.01;100.00
68077;BME280;54866;53.458;14.540;2023-01-30T08:58:07;99283.25;;;3.97;100.00
68077;BME280;54866;53.458;14.540;2023-01-30T09:00:36;99280.89;;;3.87;100.00
68077;BME280;54866;53.458;14.540;2023-01-30T09:03:06;99282.79;;;3.80;100.00
68077;BME280;54866;53.458;14.540;2023-01-30T09:05:36;99277.29;;;3.74;100.00
68077;BME280;54866;53.458;14.540;2023-01-30T09:08:06;99273.36;;;3.73;100.00
68077;BME280;54866;53.458;14.540;2023-01-30T09:10:35;99277.73;;;3.77;100.00
68077;BME280;54866;53.458;14.540;2023-01-30T09:13:06;99282.90;;;3.81;100.00
68077;BME280;54866;53.458;14.540;2023-01-30T09:15:36;99270.59;;;3.80;100.00
68077;BME280;54866;53.458;14.540;2023-01-30T09:18:06;99272.89;;;3.82;100.00
68077;BME280;54866;53.458;14.540;2023-01-30T09:20:35;99269.14;;;4.02;100.00
68077;BME280;54866;53.458;14.540;2023-01-30T09:23:05;99265.85;;;4.13;100.00
68077;BME280;54866;53.458;14.540;2023-01-30T09:25:35;99262.75;;;4.08;100.00
68077;BME280;54866;53.458;14.540;2023-01-30T09:28:04;99252.92;;;4.07;100.00
68077;BME280;54866;53.458;14.540;2023-01-30T09:30:35;99252.41;;;4.11;100.00
68077;BME280;54866;53.458;14.540;2023-01-30T09:33:04;99250.31;;;4.18;100.00
68077;BME280;54866;53.458;14.540;2023-01-30T09:35:33;99249.73;;;4.26;100.00
68077;BME280;54866;53.458;14.540;2023-01-30T09:38:03;99248.79;;;4.29;100.00
68077;BME280;54866;53.458;14.540;2023-01-30T09:40:33;99245.23;;;4.49;100.00
68077;BME280;54866;53.458;14.540;2023-01-30T09:43:16;99244.17;;;4.80;99.73
68077;BME280;54866;53.458;14.540;2023-01-30T09:46:01;99244.07;;;5.26;97.59
68077;BME280;54866;53.458;14.540;2023-01-30T09:48:35;99237.68;;;5.42;95.61
68077;BME280;54866;53.458;14.540;2023-01-30T09:51:13;99233.92;;;5.53;94.91
68077;BME280;54866;53.458;14.540;2023-01-30T09:54:18;99226.32;;;5.49;92.68
68077;BME280;54866;53.458;14.540;2023-01-30T09:56:57;99225.80;;;5.23;91.78
68077;BME280;54866;53.458;14.540;2023-01-30T09:59:34;99255.92;;;4.84;91.25
68077;BME280;54866;53.458;14.540;2023-01-30T10:02:25;99269.03;;;4.43;93.50
68077;BME280;54866;53.458;14.540;2023-01-30T10:04:57;99274.02;;;3.92;94.37
68077;BME280;54866;53.458;14.540;2023-01-30T10:07:35;99277.13;;;3.57;95.89
68077;BME280;54866;53.458;14.540;2023-01-30T10:10:13;99273.79;;;3.31;96.97
68077;BME280;54866;53.458;14.540;2023-01-30T10:12:53;99267.90;;;3.11;97.71
68077;BME280;54866;53.458;14.540;2023-01-30T10:15:46;99280.08;;;3.01;98.71
68077;BME280;54866;53.458;14.540;2023-01-30T10:18:39;99276.52;;;3.02;99.18
68077;BME280;54866;53.458;14.540;2023-01-30T10:21:23;99277.14;;;3.28;98.92
68077;BME280;54866;53.458;14.540;2023-01-30T10:24:13;99276.09;;;3.64;97.85
68077;BME280;54866;53.458;14.540;2023-01-30T10:26:45;99274.57;;;4.73;96.36
68077;BME280;54866;53.458;14.540;2023-01-30T10:29:18;99274.55;;;5.27;93.08
68077;BME280;54866;53.458;14.540;2023-01-30T10:31:52;99271.02;;;5.28;91.56
68077;BME280;54866;53.458;14.540;2023-01-30T10:34:26;99263.44;;;5.20;91.75
68077;BME280;54866;53.458;14.540;2023-01-30T10:37:01;99267.48;;;5.06;91.46
68077;BME280;54866;53.458;14.540;2023-01-30T10:39:38;99264.67;;;4.91;92.05
68077;BME280;54866;53.458;14.540;2023-01-30T10:42:12;99261.73;;;4.77;93.21
68077;BME280;54866;53.458;14.540;2023-01-30T10:44:45;99259.09;;;4.63;94.34
68077;BME280;54866;53.458;14.540;2023-01-30T10:47:26;99252.84;;;4.47;94.73
68077;BME280;54866;53.458;14.540;2023-01-30T10:50:13;99253.86;;;4.41;95.07
68077;BME280;54866;53.458;14.540;2023-01-30T10:52:48;99250.53;;;4.39;95.35
68077;BME280;54866;53.458;14.540;2023-01-30T10:55:31;99247.88;;;4.34;95.13
68077;BME280;54866;53.458;14.540;2023-01-30T10:58:09;99249.21;;;4.24;95.84
68077;BME280;54866;53.458;14.540;2023-01-30T11:00:44;99237.97;;;4.13;96.06
68077;BME280;54866;53.458;14.540;2023-01-30T11:03:23;99241.78;;;4.04;96.62
68077;BME280;54866;53.458;14.540;2023-01-30T11:05:57;99254.95;;;3.96;97.39
68077;BME280;54866;53.458;14.540;2023-01-30T11:08:29;99255.08;;;3.85;98.29
68077;BME280;54866;53.458;14.540;2023-01-30T11:11:00;99257.39;;;3.75;98.84
68077;BME280;54866;53.458;14.540;2023-01-30T11:13:31;99255.10;;;3.58;99.02
68077;BME280;54866;53.458;14.540;2023-01-30T11:16:05;99261.23;;;3.43;99.25
68077;BME280;54866;53.458;14.540;2023-01-30T11:18:44;99248.38;;;3.25;99.87
68077;BME280;54866;53.458;14.540;2023-01-30T11:21:21;99251.14;;;3.09;100.00
68077;BME280;54866;53.458;14.540;2023-01-30T11:23:54;99245.72;;;2.85;99.99
68077;BME280;54866;53.458;14.540;2023-01-30T11:26:27;99250.09;;;2.67;100.00
68077;BME280;54866;53.458;14.540;2023-01-30T11:28:59;99241.14;;;2.48;100.00
68077;BME280;54866;53.458;14.540;2023-01-30T11:31:47;99239.45;;;2.29;100.00
68077;BME280;54866;53.458;14.540;2023-01-30T11:34:18;99229.55;;;2.16;100.00
68077;BME280;54866;53.458;14.540;2023-01-30T11:36:48;99216.27;;;2.09;100.00
68077;BME280;54866;53.458;14.540;2023-01-30T11:39:26;99207.90;;;2.04;100.00
68077;BME280;54866;53.458;14.540;2023-01-30T11:42:01;99205.34;;;2.04;100.00
68077;BME280;54866;53.458;14.540;2023-01-30T11:44:34;99201.35;;;2.01;100.00
68077;BME280;54866;53.458;14.540;2023-01-30T11:47:05;99191.36;;;2.00;100.00
68077;BME280;54866;53.458;14.540;2023-01-30T11:49:40;99199.86;;;2.00;100.00
68077;BME280;54866;53.458;14.540;2023-01-30T11:52:11;99184.19;;;2.03;100.00
68077;BME280;54866;53.458;14.540;2023-01-30T11:54:42;99181.45;;;2.10;100.00
68077;BME280;54866;53.458;14.540;2023-01-30T11:57:14;99167.06;;;2.20;100.00
68077;BME280;54866;53.458;14.540;2023-01-30T11:59:47;99167.83;;;2.30;100.00
68077;BME280;54866;53.458;14.540;2023-01-30T12:02:25;99158.98;;;2.36;100.00
68077;BME280;54866;53.458;14.540;2023-01-30T12:05:00;99154.22;;;2.43;100.00
68077;BME280;54866;53.458;14.540;2023-01-30T12:07:32;99145.09;;;2.47;100.00
68077;BME280;54866;53.458;14.540;2023-01-30T12:10:24;99137.63;;;2.51;100.00
68077;BME280;54866;53.458;14.540;2023-01-30T12:12:55;99135.33;;;2.55;100.00
68077;BME280;54866;53.458;14.540;2023-01-30T12:15:28;99141.52;;;2.58;100.00
68077;BME280;54866;53.458;14.540;2023-01-30T12:18:04;99138.61;;;2.60;100.00
68077;BME280;54866;53.458;14.540;2023-01-30T12:20:45;99134.45;;;2.59;100.00
68077;BME280;54866;53.458;14.540;2023-01-30T12:23:20;99132.73;;;2.57;100.00
68077;BME280;54866;53.458;14.540;2023-01-30T12:26:00;99130.73;;;2.84;100.00
68077;BME280;54866;53.458;14.540;2023-01-30T12:28:37;99120.38;;;3.52;99.59
68077;BME280;54866;53.458;14.540;2023-01-30T12:31:12;99113.05;;;4.57;95.02
68077;BME280;54866;53.458;14.540;2023-01-30T12:33:44;99112.36;;;5.50;91.06
68077;BME280;54866;53.458;14.540;2023-01-30T12:36:24;99107.81;;;6.35;88.43
68077;BME280;54866;53.458;14.540;2023-01-30T12:39:12;99093.83;;;7.01;81.97
68077;BME280;54866;53.458;14.540;2023-01-30T12:42:12;99088.16;;;7.67;79.79
68077;BME280;54866;53.458;14.540;2023-01-30T12:44:55;99076.67;;;8.23;75.83
68077;BME280;54866;53.458;14.540;2023-01-30T12:50:25;99072.27;;;8.98;70.82
68077;BME280;54866;53.458;14.540;2023-01-30T12:56:06;99062.95;;;9.30;68.05
68077;BME280;54866;53.458;14.540;2023-01-30T12:58:45;99066.92;;;9.40;67.95
68077;BME280;54866;53.458;14.540;2023-01-30T13:01:22;99072.95;;;9.21;67.62
68077;BME280;54866;53.458;14.540;2023-01-30T13:04:05;99078.49;;;8.90;67.91
68077;BME280;54866;53.458;14.540;2023-01-30T13:06:59;99082.39;;;8.52;69.25
68077;BME280;54866;53.458;14.540;2023-01-30T13:09:40;99087.09;;;8.48;70.08
68077;BME280;54866;53.458;14.540;2023-01-30T13:12:15;99090.14;;;8.23;70.80
68077;BME280;54866;53.458;14.540;2023-01-30T13:14:51;99098.92;;;7.80;72.67
68077;BME280;54866;53.458;14.540;2023-01-30T13:17:36;99101.10;;;7.23;74.78
68077;BME280;54866;53.458;14.540;2023-01-30T13:20:19;99109.42;;;6.71;76.80
68077;BME280;54866;53.458;14.540;2023-01-30T13:22:56;99113.04;;;6.21;78.72
68077;BME280;54866;53.458;14.540;2023-01-30T13:25:35;99118.52;;;5.75;81.22
68077;BME280;54866;53.458;14.540;2023-01-30T13:28:10;99116.35;;;5.38;83.37
68077;BME280;54866;53.458;14.540;2023-01-30T13:30:43;99122.72;;;4.98;85.03